sensor_id;sensor_type;location;lat;lon;timestamp;P1;durP1;ratioP1;P2;durP2;ratioP2
4961;SDS011;2496;52.468;13.342;2023-09-12T00:02:11;15.93;;;10.67;;
4961;SDS011;2496;52.468;13.342;2023-09-12T00:04:38;15.77;;;11.37;;
4961;SDS011;2496;52.468;13.342;2023-09-12T00:07:05;17.53;;;11.23;;
4961;SDS011;2496;52.468;13.342;2023-09-12T00:09:32;16.10;;;12.10;;
4961;SDS011;2496;52.468;13.342;2023-09-12T00:11:59;12.43;;;9.53;;
4961;SDS011;2496;52.468;13.342;2023-09-12T00:14:26;15.40;;;11.67;;
4961;SDS011;2496;52.468;13.342;2023-09-12T00:16:53;11.67;;;10.47;;
4961;SDS011;2496;52.468;13.342;2023-09-12T00:19:22;14.20;;;11.40;;
4961;SDS011;2496;52.468;13.342;2023-09-12T00:21:48;19.73;;;11.33;;
4961;SDS011;2496;52.468;13.342;2023-09-12T00:24:15;14.73;;;10.67;;
4961;SDS011;2496;52.468;13.342;2023-09-12T00:26:42;12.83;;;10.93;;
4961;SDS011;2496;52.468;13.342;2023-09-12T00:29:09;13.90;;;10.30;;
4961;SDS011;2496;52.468;13.342;2023-09-12T00:31:36;17.93;;;11.60;;
4961;SDS011;2496;52.468;13.342;2023-09-12T00:34:03;18.93;;;12.03;;
4961;SDS011;2496;52.468;13.342;2023-09-12T00:36:31;13.83;;;10.97;;
4961;SDS011;2496;52.468;13.342;2023-09-12T00:38:59;14.50;;;11.00;;
4961;SDS011;2496;52.468;13.342;2023-09-12T00:41:26;12.40;;;10.80;;
4961;SDS011;2496;52.468;13.342;2023-09-12T00:43:52;14.07;;;11.10;;
4961;SDS011;2496;52.468;13.342;2023-09-12T00:46:19;15.47;;;11.13;;
4961;SDS011;2496;52.468;13.342;2023-09-12T00:48:47;15.43;;;11.40;;
4961;SDS011;2496;52.468;13.342;2023-09-12T00:51:16;17.80;;;11.83;;
4961;SDS011;2496;52.468;13.342;2023-09-12T00:53:48;14.47;;;10.87;;
4961;SDS011;2496;52.468;13.342;2023-09-12T00:56:15;22.40;;;12.60;;
4961;SDS011;2496;52.468;13.342;2023-09-12T00:58:42;17.63;;;10.67;;
4961;SDS011;2496;52.468;13.342;2023-09-12T01:01:11;16.80;;;11.03;;
4961;SDS011;2496;52.468;13.342;2023-09-12T01:03:38;15.57;;;10.23;;
4961;SDS011;2496;52.468;13.342;2023-09-12T01:06:05;20.33;;;12.07;;
4961;SDS011;2496;52.468;13.342;2023-09-12T01:08:34;15.60;;;11.50;;
4961;SDS011;2496;52.468;13.342;2023-09-12T01:11:04;13.40;;;11.20;;
4961;SDS011;2496;52.468;13.342;2023-09-12T01:13:32;12.87;;;11.00;;
4961;SDS011;2496;52.468;13.342;2023-09-12T01:15:58;17.60;;;11.30;;
4961;SDS011;2496;52.468;13.342;2023-09-12T01:18:25;18.80;;;11.30;;
4961;SDS011;2496;52.468;13.342;2023-09-12T01:20:58;14.90;;;11.40;;
4961;SDS011;2496;52.468;13.342;2023-09-12T01:23:44;12.97;;;10.50;;
4961;SDS011;2496;52.468;13.342;2023-09-12T01:26:28;17.37;;;13.27;;
4961;SDS011;2496;52.468;13.342;2023-09-12T01:29:04;15.77;;;11.33;;
4961;SDS011;2496;52.468;13.342;2023-09-12T01:31:32;14.70;;;10.90;;
4961;SDS011;2496;52.468;13.342;2023-09-12T01:34:08;16.80;;;12.10;;
4961;SDS011;2496;52.468;13.342;2023-09-12T01:36:35;16.40;;;11.57;;
4961;SDS011;2496;52.468;13.342;2023-09-12T01:39:02;17.03;;;12.00;;
4961;SDS011;2496;52.468;13.342;2023-09-12T01:41:30;12.50;;;11.20;;
4961;SDS011;2496;52.468;13.342;2023-09-12T01:44:01;14.60;;;12.50;;
4961;SDS011;2496;52.468;13.342;2023-09-12T01:46:30;14.13;;;10.17;;
4961;SDS011;2496;52.468;13.342;2023-09-12T01:48:59;16.23;;;12.83;;
4961;SDS011;2496;52.468;13.342;2023-09-12T01:51:28;14.30;;;11.30;;
4961;SDS011;2496;52.468;13.342;2023-09-12T01:53:55;14.10;;;11.83;;
4961;SDS011;2496;52.468;13.342;2023-09-12T01:56:24;17.37;;;12.57;;
4961;SDS011;2496;52.468;13.342;2023-09-12T01:58:52;17.90;;;12.10;;
4961;SDS011;2496;52.468;13.342;2023-09-12T02:01:20;15.13;;;11.93;;
4961;SDS011;2496;52.468;13.342;2023-09-12T02:03:47;12.93;;;11.23;;
4961;SDS011;2496;52.468;13.342;2023-09-12T02:06:14;16.53;;;11.47;;
4961;SDS011;2496;52.468;13.342;2023-09-12T02:08:41;15.53;;;10.83;;
4961;SDS011;2496;52.468;13.342;2023-09-12T02:11:08;13.17;;;11.20;;
4961;SDS011;2496;52.468;13.342;2023-09-12T02:13:35;15.63;;;11.93;;
4961;SDS011;2496;52.468;13.342;2023-09-12T02:16:01;15.90;;;11.13;;
4961;SDS011;2496;52.468;13.342;2023-09-12T02:18:30;27.23;;;12.40;;
4961;SDS011;2496;52.468;13.342;2023-09-12T02:20:58;18.70;;;11.67;;
4961;SDS011;2496;52.468;13.342;2023-09-12T02:23:25;15.90;;;12.70;;
4961;SDS011;2496;52.468;13.342;2023-09-12T02:25:52;16.63;;;13.20;;
4961;SDS011;2496;52.468;13.342;2023-09-12T02:28:19;19.00;;;11.50;;
4961;SDS011;2496;52.468;13.342;2023-09-12T02:30:46;16.67;;;12.63;;
4961;SDS011;2496;52.468;13.342;2023-09-12T02:33:12;15.00;;;10.70;;
4961;SDS011;2496;52.468;13.342;2023-09-12T02:35:41;18.23;;;9.97;;
4961;SDS011;2496;52.468;13.342;2023-09-12T02:38:08;15.70;;;12.20;;
4961;SDS011;2496;52.468;13.342;2023-09-12T02:40:35;18.93;;;12.93;;
4961;SDS011;2496;52.468;13.342;2023-09-12T02:43:02;17.93;;;12.07;;
4961;SDS011;2496;52.468;13.342;2023-09-12T02:45:29;13.60;;;11.63;;
4961;SDS011;2496;52.468;13.342;2023-09-12T02:47:56;12.67;;;11.10;;
4961;SDS011;2496;52.468;13.342;2023-09-12T02:50:23;18.83;;;12.43;;
4961;SDS011;2496;52.468;13.342;2023-09-12T02:52:51;15.33;;;12.07;;
4961;SDS011;2496;52.468;13.342;2023-09-12T02:55:18;21.67;;;12.07;;
4961;SDS011;2496;52.468;13.342;2023-09-12T02:57:45;13.83;;;11.80;;
4961;SDS011;2496;52.468;13.342;2023-09-12T03:00:12;20.20;;;13.00;;
4961;SDS011;2496;52.468;13.342;2023-09-12T03:02:39;17.07;;;12.07;;
4961;SDS011;2496;52.468;13.342;2023-09-12T03:05:06;19.80;;;12.67;;
4961;SDS011;2496;52.468;13.342;2023-09-12T03:07:34;13.50;;;12.07;;
4961;SDS011;2496;52.468;13.342;2023-09-12T03:10:02;16.33;;;13.13;;
4961;SDS011;2496;52.468;13.342;2023-09-12T03:12:30;16.40;;;12.70;;
4961;SDS011;2496;52.468;13.342;2023-09-12T03:14:57;14.70;;;12.30;;
4961;SDS011;2496;52.468;13.342;2023-09-12T03:17:24;14.10;;;12.40;;
4961;SDS011;2496;52.468;13.342;2023-09-12T03:19:51;20.57;;;13.20;;
4961;SDS011;2496;52.468;13.342;2023-09-12T03:22:18;14.47;;;12.03;;
4961;SDS011;2496;52.468;13.342;2023-09-12T03:24:45;22.40;;;12.93;;
4961;SDS011;2496;52.468;13.342;2023-09-12T03:27:13;19.00;;;11.67;;
4961;SDS011;2496;52.468;13.342;2023-09-12T03:29:40;14.73;;;12.07;;
4961;SDS011;2496;52.468;13.342;2023-09-12T03:32:07;13.00;;;11.63;;
4961;SDS011;2496;52.468;13.342;2023-09-12T03:34:34;17.40;;;11.50;;
4961;SDS011;2496;52.468;13.342;2023-09-12T03:37:01;15.20;;;12.70;;
4961;SDS011;2496;52.468;13.342;2023-09-12T03:39:28;18.33;;;11.90;;
4961;SDS011;2496;52.468;13.342;2023-09-12T03:41:55;15.03;;;11.97;;
4961;SDS011;2496;52.468;13.342;2023-09-12T03:44:23;23.97;;;12.30;;
4961;SDS011;2496;52.468;13.342;2023-09-12T03:46:50;19.30;;;12.20;;
4961;SDS011;2496;52.468;13.342;2023-09-12T03:49:17;15.50;;;11.83;;
4961;SDS011;2496;52.468;13.342;2023-09-12T03:51:44;14.30;;;12.63;;
4961;SDS011;2496;52.468;13.342;2023-09-12T03:54:11;15.83;;;12.27;;
4961;SDS011;2496;52.468;13.342;2023-09-12T03:56:38;14.90;;;13.30;;
4961;SDS011;2496;52.468;13.342;2023-09-12T03:59:05;13.70;;;12.30;;
4961;SDS011;2496;52.468;13.342;2023-09-12T04:01:33;15.83;;;12.90;;
4961;SDS011;2496;52.468;13.342;2023-09-12T04:04:01;20.37;;;12.43;;
4961;SDS011;2496;52.468;13.342;2023-09-12T04:06:28;16.57;;;12.87;;
4961;SDS011;2496;52.468;13.342;2023-09-12T04:08:55;17.13;;;12.27;;
4961;SDS011;2496;52.468;13.342;2023-09-12T04:13:56;16.67;;;12.80;;
4961;SDS011;2496;52.468;13.342;2023-09-12T04:16:23;20.93;;;12.33;;
4961;SDS011;2496;52.468;13.342;2023-09-12T04:18:51;15.80;;;12.87;;
4961;SDS011;2496;52.468;13.342;2023-09-12T04:21:18;15.50;;;12.80;;
4961;SDS011;2496;52.468;13.342;2023-09-12T04:23:45;17.77;;;11.67;;
4961;SDS011;2496;52.468;13.342;2023-09-12T04:26:12;15.20;;;11.83;;
4961;SDS011;2496;52.468;13.342;2023-09-12T04:28:39;13.80;;;11.00;;
4961;SDS011;2496;52.468;13.342;2023-09-12T04:31:06;18.30;;;12.63;;
4961;SDS011;2496;52.468;13.342;2023-09-12T04:33:33;16.00;;;13.40;;
4961;SDS011;2496;52.468;13.342;2023-09-12T04:36:01;17.20;;;12.80;;
4961;SDS011;2496;52.468;13.342;2023-09-12T04:38:28;22.57;;;13.93;;
4961;SDS011;2496;52.468;13.342;2023-09-12T04:40:56;16.60;;;12.67;;
4961;SDS011;2496;52.468;13.342;2023-09-12T04:43:28;19.43;;;12.83;;
4961;SDS011;2496;52.468;13.342;2023-09-12T04:45:54;25.40;;;14.83;;
4961;SDS011;2496;52.468;13.342;2023-09-12T04:48:22;15.67;;;12.60;;
4961;SDS011;2496;52.468;13.342;2023-09-12T04:50:49;14.03;;;12.53;;
4961;SDS011;2496;52.468;13.342;2023-09-12T04:53:17;14.53;;;12.90;;
4961;SDS011;2496;52.468;13.342;2023-09-12T04:55:44;15.40;;;12.50;;
4961;SDS011;2496;52.468;13.342;2023-09-12T04:58:11;16.90;;;12.57;;
4961;SDS011;2496;52.468;13.342;2023-09-12T05:00:38;16.50;;;12.10;;
4961;SDS011;2496;52.468;13.342;2023-09-12T05:03:06;18.47;;;13.13;;
4961;SDS011;2496;52.468;13.342;2023-09-12T05:05:33;16.83;;;12.63;;
4961;SDS011;2496;52.468;13.342;2023-09-12T05:08:01;15.33;;;12.23;;
4961;SDS011;2496;52.468;13.342;2023-09-12T05:10:30;15.40;;;13.83;;
4961;SDS011;2496;52.468;13.342;2023-09-12T05:12:57;20.50;;;13.27;;
4961;SDS011;2496;52.468;13.342;2023-09-12T05:15:24;16.60;;;13.00;;
4961;SDS011;2496;52.468;13.342;2023-09-12T05:17:51;19.10;;;13.77;;
4961;SDS011;2496;52.468;13.342;2023-09-12T05:20:18;23.53;;;14.07;;
4961;SDS011;2496;52.468;13.342;2023-09-12T05:22:45;17.33;;;13.50;;
4961;SDS011;2496;52.468;13.342;2023-09-12T05:25:12;15.63;;;13.00;;
4961;SDS011;2496;52.468;13.342;2023-09-12T05:27:40;15.07;;;13.17;;
4961;SDS011;2496;52.468;13.342;2023-09-12T05:30:07;19.20;;;13.53;;
4961;SDS011;2496;52.468;13.342;2023-09-12T05:32:35;16.97;;;13.10;;
4961;SDS011;2496;52.468;13.342;2023-09-12T05:35:02;18.20;;;12.90;;
4961;SDS011;2496;52.468;13.342;2023-09-12T05:37:30;23.33;;;14.10;;
4961;SDS011;2496;52.468;13.342;2023-09-12T05:39:57;22.50;;;14.97;;
4961;SDS011;2496;52.468;13.342;2023-09-12T05:42:24;19.30;;;13.40;;
4961;SDS011;2496;52.468;13.342;2023-09-12T05:44:52;18.77;;;12.80;;
4961;SDS011;2496;52.468;13.342;2023-09-12T05:47:19;21.00;;;14.33;;
4961;SDS011;2496;52.468;13.342;2023-09-12T05:49:46;21.00;;;15.13;;
4961;SDS011;2496;52.468;13.342;2023-09-12T05:52:14;17.00;;;13.63;;
4961;SDS011;2496;52.468;13.342;2023-09-12T05:54:41;22.80;;;14.47;;
4961;SDS011;2496;52.468;13.342;2023-09-12T05:57:08;18.97;;;13.10;;
4961;SDS011;2496;52.468;13.342;2023-09-12T05:59:37;16.80;;;13.50;;
4961;SDS011;2496;52.468;13.342;2023-09-12T06:02:06;17.80;;;13.87;;
4961;SDS011;2496;52.468;13.342;2023-09-12T06:04:34;18.70;;;13.40;;
4961;SDS011;2496;52.468;13.342;2023-09-12T06:07:01;19.80;;;12.00;;
4961;SDS011;2496;52.468;13.342;2023-09-12T06:09:29;17.43;;;13.20;;
4961;SDS011;2496;52.468;13.342;2023-09-12T06:11:56;18.73;;;13.47;;
4961;SDS011;2496;52.468;13.342;2023-09-12T06:14:23;20.47;;;12.90;;
4961;SDS011;2496;52.468;13.342;2023-09-12T06:16:50;24.57;;;13.13;;
4961;SDS011;2496;52.468;13.342;2023-09-12T06:19:18;19.60;;;13.67;;
4961;SDS011;2496;52.468;13.342;2023-09-12T06:21:45;22.13;;;12.90;;
4961;SDS011;2496;52.468;13.342;2023-09-12T06:24:13;21.47;;;12.70;;
4961;SDS011;2496;52.468;13.342;2023-09-12T06:26:41;22.73;;;12.70;;
4961;SDS011;2496;52.468;13.342;2023-09-12T06:29:08;16.40;;;13.17;;
4961;SDS011;2496;52.468;13.342;2023-09-12T06:31:36;16.97;;;12.13;;
4961;SDS011;2496;52.468;13.342;2023-09-12T06:34:03;17.10;;;13.20;;
4961;SDS011;2496;52.468;13.342;2023-09-12T06:36:31;15.43;;;12.40;;
4961;SDS011;2496;52.468;13.342;2023-09-12T06:38:58;17.13;;;12.30;;
4961;SDS011;2496;52.468;13.342;2023-09-12T06:41:26;22.93;;;13.60;;
4961;SDS011;2496;52.468;13.342;2023-09-12T06:43:53;27.33;;;13.27;;
4961;SDS011;2496;52.468;13.342;2023-09-12T06:46:22;21.80;;;12.10;;
4961;SDS011;2496;52.468;13.342;2023-09-12T06:48:49;24.57;;;13.50;;
4961;SDS011;2496;52.468;13.342;2023-09-12T06:51:16;23.73;;;12.40;;
4961;SDS011;2496;52.468;13.342;2023-09-12T06:53:45;31.20;;;13.53;;
4961;SDS011;2496;52.468;13.342;2023-09-12T06:56:13;21.07;;;12.07;;
4961;SDS011;2496;52.468;13.342;2023-09-12T06:58:40;17.30;;;11.37;;
4961;SDS011;2496;52.468;13.342;2023-09-12T07:01:07;13.73;;;11.10;;
4961;SDS011;2496;52.468;13.342;2023-09-12T07:03:34;26.33;;;11.90;;
4961;SDS011;2496;52.468;13.342;2023-09-12T07:06:02;14.90;;;10.80;;
4961;SDS011;2496;52.468;13.342;2023-09-12T07:08:30;22.47;;;9.93;;
4961;SDS011;2496;52.468;13.342;2023-09-12T07:10:59;17.53;;;9.13;;
4961;SDS011;2496;52.468;13.342;2023-09-12T07:13:30;17.23;;;9.70;;
4961;SDS011;2496;52.468;13.342;2023-09-12T07:15:58;18.33;;;11.10;;
4961;SDS011;2496;52.468;13.342;2023-09-12T07:18:28;28.73;;;10.47;;
4961;SDS011;2496;52.468;13.342;2023-09-12T07:20:58;20.30;;;10.93;;
4961;SDS011;2496;52.468;13.342;2023-09-12T07:23:26;21.20;;;9.50;;
4961;SDS011;2496;52.468;13.342;2023-09-12T07:25:53;20.03;;;9.67;;
4961;SDS011;2496;52.468;13.342;2023-09-12T07:28:23;14.83;;;10.93;;
4961;SDS011;2496;52.468;13.342;2023-09-12T07:30:51;19.17;;;10.00;;
4961;SDS011;2496;52.468;13.342;2023-09-12T07:33:18;17.30;;;10.23;;
4961;SDS011;2496;52.468;13.342;2023-09-12T07:35:45;19.03;;;9.50;;
4961;SDS011;2496;52.468;13.342;2023-09-12T07:38:12;14.40;;;9.30;;
4961;SDS011;2496;52.468;13.342;2023-09-12T07:40:40;15.30;;;9.13;;
4961;SDS011;2496;52.468;13.342;2023-09-12T07:43:07;10.97;;;8.87;;
4961;SDS011;2496;52.468;13.342;2023-09-12T07:45:36;16.97;;;9.90;;
4961;SDS011;2496;52.468;13.342;2023-09-12T07:48:03;16.43;;;9.90;;
4961;SDS011;2496;52.468;13.342;2023-09-12T07:50:32;16.20;;;10.20;;
4961;SDS011;2496;52.468;13.342;2023-09-12T07:53:00;20.13;;;8.93;;
4961;SDS011;2496;52.468;13.342;2023-09-12T07:55:28;17.90;;;10.23;;
4961;SDS011;2496;52.468;13.342;2023-09-12T07:57:59;18.77;;;10.13;;
4961;SDS011;2496;52.468;13.342;2023-09-12T08:00:26;23.93;;;10.43;;
4961;SDS011;2496;52.468;13.342;2023-09-12T08:02:55;20.23;;;9.93;;
4961;SDS011;2496;52.468;13.342;2023-09-12T08:05:22;23.00;;;8.97;;
4961;SDS011;2496;52.468;13.342;2023-09-12T08:07:49;19.57;;;8.93;;
4961;SDS011;2496;52.468;13.342;2023-09-12T08:10:16;32.83;;;9.03;;
4961;SDS011;2496;52.468;13.342;2023-09-12T08:12:43;23.17;;;9.40;;
4961;SDS011;2496;52.468;13.342;2023-09-12T08:15:10;14.03;;;8.40;;
4961;SDS011;2496;52.468;13.342;2023-09-12T08:17:40;19.70;;;7.77;;
4961;SDS011;2496;52.468;13.342;2023-09-12T08:20:09;21.90;;;7.83;;
4961;SDS011;2496;52.468;13.342;2023-09-12T08:22:36;16.47;;;8.10;;
4961;SDS011;2496;52.468;13.342;2023-09-12T08:25:04;14.50;;;8.03;;
4961;SDS011;2496;52.468;13.342;2023-09-12T08:27:31;16.20;;;8.50;;
4961;SDS011;2496;52.468;13.342;2023-09-12T08:29:58;15.83;;;8.53;;
4961;SDS011;2496;52.468;13.342;2023-09-12T08:32:25;16.20;;;8.67;;
4961;SDS011;2496;52.468;13.342;2023-09-12T08:34:52;21.67;;;8.43;;
4961;SDS011;2496;52.468;13.342;2023-09-12T08:37:21;24.20;;;7.93;;
4961;SDS011;2496;52.468;13.342;2023-09-12T08:39:47;19.73;;;8.00;;
4961;SDS011;2496;52.468;13.342;2023-09-12T08:42:15;15.43;;;7.93;;
4961;SDS011;2496;52.468;13.342;2023-09-12T08:44:42;20.57;;;8.17;;
4961;SDS011;2496;52.468;13.342;2023-09-12T08:47:09;35.13;;;10.10;;
4961;SDS011;2496;52.468;13.342;2023-09-12T08:49:38;32.47;;;13.80;;
4961;SDS011;2496;52.468;13.342;2023-09-12T08:52:07;41.50;;;21.77;;
4961;SDS011;2496;52.468;13.342;2023-09-12T08:54:35;44.23;;;13.17;;
4961;SDS011;2496;52.468;13.342;2023-09-12T08:57:04;21.63;;;8.80;;
4961;SDS011;2496;52.468;13.342;2023-09-12T08:59:31;20.43;;;10.00;;
4961;SDS011;2496;52.468;13.342;2023-09-12T09:02:00;13.70;;;7.30;;
4961;SDS011;2496;52.468;13.342;2023-09-12T09:04:29;16.27;;;7.13;;
4961;SDS011;2496;52.468;13.342;2023-09-12T09:06:59;15.47;;;6.33;;
4961;SDS011;2496;52.468;13.342;2023-09-12T09:09:30;18.07;;;7.23;;
4961;SDS011;2496;52.468;13.342;2023-09-12T09:11:59;19.50;;;8.47;;
4961;SDS011;2496;52.468;13.342;2023-09-12T09:14:27;19.77;;;7.53;;
4961;SDS011;2496;52.468;13.342;2023-09-12T09:16:56;14.63;;;7.43;;
4961;SDS011;2496;52.468;13.342;2023-09-12T09:19:24;24.10;;;7.00;;
4961;SDS011;2496;52.468;13.342;2023-09-12T09:22:07;18.30;;;7.30;;
4961;SDS011;2496;52.468;13.342;2023-09-12T09:24:33;20.43;;;7.40;;
4961;SDS011;2496;52.468;13.342;2023-09-12T09:27:02;16.73;;;7.30;;
4961;SDS011;2496;52.468;13.342;2023-09-12T09:29:30;17.40;;;7.27;;
4961;SDS011;2496;52.468;13.342;2023-09-12T09:31:59;21.70;;;7.37;;
4961;SDS011;2496;52.468;13.342;2023-09-12T09:34:27;20.77;;;8.13;;
4961;SDS011;2496;52.468;13.342;2023-09-12T09:36:55;19.93;;;9.27;;
4961;SDS011;2496;52.468;13.342;2023-09-12T09:39:23;20.47;;;8.90;;
4961;SDS011;2496;52.468;13.342;2023-09-12T09:41:51;19.40;;;9.80;;
4961;SDS011;2496;52.468;13.342;2023-09-12T09:44:22;20.60;;;9.37;;
4961;SDS011;2496;52.468;13.342;2023-09-12T09:46:52;24.53;;;9.23;;
4961;SDS011;2496;52.468;13.342;2023-09-12T09:49:20;18.33;;;9.07;;
4961;SDS011;2496;52.468;13.342;2023-09-12T09:51:47;23.13;;;9.93;;
4961;SDS011;2496;52.468;13.342;2023-09-12T09:54:15;20.93;;;9.20;;
4961;SDS011;2496;52.468;13.342;2023-09-12T09:56:45;27.23;;;10.00;;
4961;SDS011;2496;52.468;13.342;2023-09-12T09:59:16;20.37;;;10.00;;
4961;SDS011;2496;52.468;13.342;2023-09-12T10:01:46;24.63;;;10.53;;
4961;SDS011;2496;52.468;13.342;2023-09-12T10:04:16;23.23;;;11.10;;
4961;SDS011;2496;52.468;13.342;2023-09-12T10:06:45;34.50;;;12.30;;
4961;SDS011;2496;52.468;13.342;2023-09-12T10:09:13;31.60;;;11.27;;
4961;SDS011;2496;52.468;13.342;2023-09-12T10:11:42;22.43;;;11.50;;
4961;SDS011;2496;52.468;13.342;2023-09-12T10:14:11;20.03;;;10.57;;
4961;SDS011;2496;52.468;13.342;2023-09-12T10:16:39;25.23;;;9.90;;
4961;SDS011;2496;52.468;13.342;2023-09-12T10:19:13;28.73;;;10.60;;
4961;SDS011;2496;52.468;13.342;2023-09-12T10:21:45;16.30;;;10.27;;
4961;SDS011;2496;52.468;13.342;2023-09-12T10:24:15;28.50;;;10.00;;
4961;SDS011;2496;52.468;13.342;2023-09-12T10:26:42;20.90;;;10.93;;
4961;SDS011;2496;52.468;13.342;2023-09-12T10:29:10;23.77;;;10.83;;
4961;SDS011;2496;52.468;13.342;2023-09-12T10:31:40;27.17;;;10.20;;
4961;SDS011;2496;52.468;13.342;2023-09-12T10:34:07;25.27;;;10.37;;
4961;SDS011;2496;52.468;13.342;2023-09-12T10:36:39;28.27;;;10.50;;
4961;SDS011;2496;52.468;13.342;2023-09-12T10:39:07;19.83;;;10.30;;
4961;SDS011;2496;52.468;13.342;2023-09-12T10:41:36;21.43;;;10.30;;
4961;SDS011;2496;52.468;13.342;2023-09-12T10:44:05;19.47;;;10.33;;
4961;SDS011;2496;52.468;13.342;2023-09-12T10:46:36;19.03;;;9.23;;
4961;SDS011;2496;52.468;13.342;2023-09-12T10:49:06;24.00;;;8.40;;
4961;SDS011;2496;52.468;13.342;2023-09-12T10:51:34;23.20;;;10.17;;
4961;SDS011;2496;52.468;13.342;2023-09-12T10:54:06;24.23;;;9.70;;
4961;SDS011;2496;52.468;13.342;2023-09-12T10:56:34;19.37;;;11.37;;
4961;SDS011;2496;52.468;13.342;2023-09-12T10:59:11;33.77;;;11.70;;
4961;SDS011;2496;52.468;13.342;2023-09-12T11:01:39;30.50;;;10.00;;
4961;SDS011;2496;52.468;13.342;2023-09-12T11:06:59;22.00;;;10.10;;
4961;SDS011;2496;52.468;13.342;2023-09-12T11:09:27;35.13;;;17.40;;
4961;SDS011;2496;52.468;13.342;2023-09-12T11:11:55;28.03;;;10.50;;
4961;SDS011;2496;52.468;13.342;2023-09-12T11:14:24;22.77;;;9.73;;
4961;SDS011;2496;52.468;13.342;2023-09-12T11:19:49;23.77;;;9.33;;
4961;SDS011;2496;52.468;13.342;2023-09-12T11:22:26;20.80;;;10.00;;
4961;SDS011;2496;52.468;13.342;2023-09-12T11:24:54;19.03;;;10.10;;
4961;SDS011;2496;52.468;13.342;2023-09-12T11:27:22;19.07;;;10.40;;
4961;SDS011;2496;52.468;13.342;2023-09-12T11:29:50;22.37;;;9.97;;
4961;SDS011;2496;52.468;13.342;2023-09-12T11:32:24;14.57;;;9.10;;
4961;SDS011;2496;52.468;13.342;2023-09-12T11:34:53;21.70;;;10.27;;
4961;SDS011;2496;52.468;13.342;2023-09-12T11:37:23;20.60;;;10.20;;
4961;SDS011;2496;52.468;13.342;2023-09-12T11:39:53;20.10;;;9.60;;
4961;SDS011;2496;52.468;13.342;2023-09-12T11:42:22;10.17;;;7.83;;
4961;SDS011;2496;52.468;13.342;2023-09-12T11:44:50;11.77;;;9.00;;
4961;SDS011;2496;52.468;13.342;2023-09-12T11:47:18;11.73;;;7.70;;
4961;SDS011;2496;52.468;13.342;2023-09-12T11:49:45;17.07;;;8.67;;
4961;SDS011;2496;52.468;13.342;2023-09-12T11:52:13;10.10;;;7.10;;
4961;SDS011;2496;52.468;13.342;2023-09-12T11:54:43;12.97;;;8.63;;
4961;SDS011;2496;52.468;13.342;2023-09-12T11:57:12;12.57;;;8.20;;
4961;SDS011;2496;52.468;13.342;2023-09-12T11:59:40;23.67;;;8.80;;
4961;SDS011;2496;52.468;13.342;2023-09-12T12:02:10;13.30;;;7.20;;
4961;SDS011;2496;52.468;13.342;2023-09-12T12:04:37;14.20;;;7.63;;
4961;SDS011;2496;52.468;13.342;2023-09-12T12:07:05;19.07;;;7.67;;
4961;SDS011;2496;52.468;13.342;2023-09-12T12:09:33;26.67;;;9.90;;
4961;SDS011;2496;52.468;13.342;2023-09-12T12:12:12;13.13;;;7.73;;
4961;SDS011;2496;52.468;13.342;2023-09-12T12:14:40;15.40;;;8.50;;
4961;SDS011;2496;52.468;13.342;2023-09-12T12:17:10;21.00;;;8.83;;
4961;SDS011;2496;52.468;13.342;2023-09-12T12:19:38;17.23;;;8.30;;
4961;SDS011;2496;52.468;13.342;2023-09-12T12:22:05;22.87;;;8.53;;
4961;SDS011;2496;52.468;13.342;2023-09-12T12:24:37;12.83;;;8.43;;
4961;SDS011;2496;52.468;13.342;2023-09-12T12:27:05;12.80;;;6.63;;
4961;SDS011;2496;52.468;13.342;2023-09-12T12:29:35;16.93;;;7.93;;
4961;SDS011;2496;52.468;13.342;2023-09-12T12:32:04;13.93;;;8.03;;
4961;SDS011;2496;52.468;13.342;2023-09-12T12:34:34;16.07;;;9.23;;
4961;SDS011;2496;52.468;13.342;2023-09-12T12:37:01;13.07;;;8.50;;
4961;SDS011;2496;52.468;13.342;2023-09-12T12:39:29;12.87;;;6.90;;
4961;SDS011;2496;52.468;13.342;2023-09-12T12:41:57;18.40;;;7.63;;
4961;SDS011;2496;52.468;13.342;2023-09-12T12:44:32;17.03;;;7.10;;
4961;SDS011;2496;52.468;13.342;2023-09-12T12:47:05;14.93;;;6.80;;
4961;SDS011;2496;52.468;13.342;2023-09-12T12:49:35;17.27;;;7.23;;
4961;SDS011;2496;52.468;13.342;2023-09-12T12:52:04;12.00;;;7.30;;
4961;SDS011;2496;52.468;13.342;2023-09-12T12:54:31;12.00;;;6.07;;
4961;SDS011;2496;52.468;13.342;2023-09-12T12:56:59;15.23;;;7.57;;
4961;SDS011;2496;52.468;13.342;2023-09-12T12:59:28;17.20;;;7.43;;
4961;SDS011;2496;52.468;13.342;2023-09-12T13:02:01;12.87;;;8.10;;
4961;SDS011;2496;52.468;13.342;2023-09-12T13:04:29;18.60;;;7.27;;
4961;SDS011;2496;52.468;13.342;2023-09-12T13:07:02;14.40;;;7.20;;
4961;SDS011;2496;52.468;13.342;2023-09-12T13:09:29;11.90;;;8.07;;
4961;SDS011;2496;52.468;13.342;2023-09-12T13:11:57;14.50;;;7.90;;
4961;SDS011;2496;52.468;13.342;2023-09-12T13:14:24;18.17;;;7.00;;
4961;SDS011;2496;52.468;13.342;2023-09-12T13:16:55;17.27;;;8.17;;
4961;SDS011;2496;52.468;13.342;2023-09-12T13:19:24;15.30;;;8.60;;
4961;SDS011;2496;52.468;13.342;2023-09-12T13:21:51;12.57;;;6.80;;
4961;SDS011;2496;52.468;13.342;2023-09-12T13:24:18;11.20;;;7.07;;
4961;SDS011;2496;52.468;13.342;2023-09-12T13:26:45;11.80;;;7.60;;
4961;SDS011;2496;52.468;13.342;2023-09-12T13:29:12;12.83;;;7.57;;
4961;SDS011;2496;52.468;13.342;2023-09-12T13:31:39;22.90;;;7.80;;
4961;SDS011;2496;52.468;13.342;2023-09-12T13:34:06;14.13;;;8.13;;
4961;SDS011;2496;52.468;13.342;2023-09-12T13:36:34;19.57;;;6.43;;
4961;SDS011;2496;52.468;13.342;2023-09-12T13:39:01;17.53;;;8.00;;
4961;SDS011;2496;52.468;13.342;2023-09-12T13:41:29;12.73;;;7.40;;
4961;SDS011;2496;52.468;13.342;2023-09-12T13:43:56;23.63;;;8.33;;
4961;SDS011;2496;52.468;13.342;2023-09-12T13:46:23;18.73;;;8.60;;
4961;SDS011;2496;52.468;13.342;2023-09-12T13:48:50;15.37;;;7.70;;
4961;SDS011;2496;52.468;13.342;2023-09-12T13:51:17;19.80;;;8.17;;
4961;SDS011;2496;52.468;13.342;2023-09-12T13:53:45;28.93;;;7.60;;
4961;SDS011;2496;52.468;13.342;2023-09-12T13:56:12;23.37;;;8.40;;
4961;SDS011;2496;52.468;13.342;2023-09-12T13:58:39;23.63;;;8.60;;
4961;SDS011;2496;52.468;13.342;2023-09-12T14:01:06;17.00;;;8.90;;
4961;SDS011;2496;52.468;13.342;2023-09-12T14:03:33;12.33;;;7.40;;
4961;SDS011;2496;52.468;13.342;2023-09-12T14:06:00;16.53;;;8.20;;
4961;SDS011;2496;52.468;13.342;2023-09-12T14:08:27;17.33;;;8.03;;
4961;SDS011;2496;52.468;13.342;2023-09-12T14:10:55;22.20;;;7.77;;
4961;SDS011;2496;52.468;13.342;2023-09-12T14:13:22;17.17;;;7.60;;
4961;SDS011;2496;52.468;13.342;2023-09-12T14:15:49;15.13;;;8.10;;
4961;SDS011;2496;52.468;13.342;2023-09-12T14:18:16;20.93;;;7.50;;
4961;SDS011;2496;52.468;13.342;2023-09-12T14:20:43;22.93;;;7.70;;
4961;SDS011;2496;52.468;13.342;2023-09-12T14:23:11;27.40;;;7.87;;
4961;SDS011;2496;52.468;13.342;2023-09-12T14:25:38;17.10;;;7.37;;
4961;SDS011;2496;52.468;13.342;2023-09-12T14:28:06;21.30;;;8.17;;
4961;SDS011;2496;52.468;13.342;2023-09-12T14:30:33;17.73;;;10.30;;
4961;SDS011;2496;52.468;13.342;2023-09-12T14:33:01;14.03;;;8.70;;
4961;SDS011;2496;52.468;13.342;2023-09-12T14:35:28;18.90;;;7.53;;
4961;SDS011;2496;52.468;13.342;2023-09-12T14:37:55;20.20;;;7.63;;
4961;SDS011;2496;52.468;13.342;2023-09-12T14:40:23;19.20;;;8.80;;
4961;SDS011;2496;52.468;13.342;2023-09-12T14:42:51;27.30;;;8.70;;
4961;SDS011;2496;52.468;13.342;2023-09-12T14:45:20;14.23;;;7.00;;
4961;SDS011;2496;52.468;13.342;2023-09-12T14:47:48;18.90;;;7.70;;
4961;SDS011;2496;52.468;13.342;2023-09-12T14:50:15;18.83;;;6.30;;
4961;SDS011;2496;52.468;13.342;2023-09-12T14:52:42;11.90;;;4.47;;
4961;SDS011;2496;52.468;13.342;2023-09-12T14:55:09;10.47;;;4.67;;